VLG8670 LEBL-LJLJ
Flight info
| Callsign | VLG8670 |
|---|---|
| Flight time | 1h 30m |
| Altitude | 30000 |
| Route | DALIN N870 DIBER/N0424F360 DCT STP Y15 PIGOS DCT NOSTA DCT ANAKI DCT IBTOK DCT UPIRO DCT RIFEN RIFEN2L |
| Aircraft | A320/M-SDE3FGHIRWY/LB1 |
Departure
| Time | 2026-05-07 18:59 |
|---|---|
| Airport | Josep Tarradellas Barcelona-El Prat Airport (LEBL) |
Arrival
| Time | 2026-05-07 20:30 |
|---|---|
| Airport | Ljubljana Jože Pučnik Airport (LJLJ) |
| Time | Latitude | Longitude | Altitude | Speed | Heading |
|---|---|---|---|---|---|
| 2026-05-07 18:29 | 41.29444 | 2.08060 | 18 ft | 0 kts | 65° |
| 2026-05-07 18:49 | 41.29437 | 2.08039 | 16 ft | 3 kts | 58° |
| 2026-05-07 18:49 | 41.29425 | 2.08019 | 19 ft | 3 kts | 37° |
| 2026-05-07 18:50 | 41.29410 | 2.08008 | 17 ft | 3 kts | 355° |
| 2026-05-07 18:50 | 41.29401 | 2.08010 | 20 ft | 0 kts | 335° |
| 2026-05-07 18:53 | 41.29405 | 2.08007 | 17 ft | 1 kts | 335° |
| 2026-05-07 18:53 | 41.29418 | 2.08000 | 17 ft | 5 kts | 335° |
| 2026-05-07 18:53 | 41.29490 | 2.07973 | 15 ft | 12 kts | 24° |
| 2026-05-07 18:54 | 41.29530 | 2.08107 | 16 ft | 20 kts | 65° |
| 2026-05-07 18:54 | 41.29550 | 2.08270 | 16 ft | 12 kts | 131° |
| 2026-05-07 18:54 | 41.29465 | 2.08320 | 17 ft | 18 kts | 153° |
| 2026-05-07 18:54 | 41.29325 | 2.08402 | 21 ft | 23 kts | 155° |
| 2026-05-07 18:55 | 41.29176 | 2.08445 | 20 ft | 23 kts | 213° |
| 2026-05-07 18:55 | 41.29019 | 2.08364 | 18 ft | 19 kts | 199° |
| 2026-05-07 18:55 | 41.28901 | 2.08309 | 18 ft | 19 kts | 199° |
| 2026-05-07 18:55 | 41.28762 | 2.08247 | 16 ft | 22 kts | 198° |
| 2026-05-07 18:56 | 41.28662 | 2.08135 | 18 ft | 18 kts | 244° |
| 2026-05-07 18:56 | 41.28611 | 2.07994 | 16 ft | 16 kts | 244° |
| 2026-05-07 18:56 | 41.28564 | 2.07865 | 18 ft | 15 kts | 244° |
| 2026-05-07 18:56 | 41.28525 | 2.07752 | 19 ft | 13 kts | 245° |
| 2026-05-07 18:57 | 41.28492 | 2.07651 | 18 ft | 11 kts | 246° |
| 2026-05-07 18:57 | 41.28449 | 2.07577 | 16 ft | 9 kts | 217° |
| 2026-05-07 18:57 | 41.28391 | 2.07547 | 16 ft | 8 kts | 200° |
| 2026-05-07 18:57 | 41.28340 | 2.07522 | 16 ft | 7 kts | 200° |
| 2026-05-07 18:58 | 41.28296 | 2.07455 | 17 ft | 15 kts | 229° |
| 2026-05-07 18:58 | 41.28241 | 2.07477 | 19 ft | 8 kts | 82° |
| 2026-05-07 18:58 | 41.28269 | 2.07545 | 20 ft | 10 kts | 64° |
| 2026-05-07 18:58 | 41.28358 | 2.07800 | 21 ft | 64 kts | 66° |
| 2026-05-07 18:59 | 41.28631 | 2.08614 | 22 ft | 126 kts | 66° |
| 2026-05-07 18:59 | 41.29013 | 2.09791 | 411 ft | 138 kts | 66° |
| 2026-05-07 18:59 | 41.29366 | 2.10980 | 1055 ft | 140 kts | 81° |
| 2026-05-07 18:59 | 41.29340 | 2.12288 | 1587 ft | 149 kts | 96° |
| 2026-05-07 19:00 | 41.29184 | 2.13755 | 1929 ft | 172 kts | 98° |
| 2026-05-07 19:00 | 41.28995 | 2.15439 | 2299 ft | 195 kts | 98° |
| 2026-05-07 19:00 | 41.28798 | 2.17285 | 2878 ft | 205 kts | 98° |
| 2026-05-07 19:00 | 41.28606 | 2.19178 | 3590 ft | 208 kts | 97° |
| 2026-05-07 19:01 | 41.28423 | 2.21100 | 4285 ft | 211 kts | 97° |
| 2026-05-07 19:01 | 41.28242 | 2.23048 | 4997 ft | 213 kts | 97° |
| 2026-05-07 19:01 | 41.28065 | 2.25014 | 5680 ft | 215 kts | 97° |
| 2026-05-07 19:01 | 41.27891 | 2.26996 | 6354 ft | 218 kts | 97° |
| 2026-05-07 19:02 | 41.27716 | 2.29013 | 7060 ft | 221 kts | 96° |
| 2026-05-07 19:02 | 41.27645 | 2.31102 | 7561 ft | 238 kts | 81° |
| 2026-05-07 19:02 | 41.28301 | 2.33219 | 7923 ft | 262 kts | 60° |
| 2026-05-07 19:02 | 41.28928 | 2.34635 | 8255 ft | 273 kts | 59° |
| 2026-05-07 19:03 | 41.29923 | 2.36840 | 9010 ft | 281 kts | 59° |
| 2026-05-07 19:03 | 41.30939 | 2.39086 | 9858 ft | 285 kts | 59° |
| 2026-05-07 19:03 | 41.31985 | 2.41400 | 10357 ft | 302 kts | 59° |
| 2026-05-07 19:03 | 41.33102 | 2.43889 | 10666 ft | 324 kts | 59° |
| 2026-05-07 19:04 | 41.34268 | 2.46506 | 11292 ft | 332 kts | 59° |
| 2026-05-07 19:04 | 41.35455 | 2.49174 | 12030 ft | 337 kts | 59° |
| 2026-05-07 19:04 | 41.36652 | 2.51873 | 12788 ft | 342 kts | 59° |
| 2026-05-07 19:04 | 41.37872 | 2.54624 | 13532 ft | 346 kts | 59° |
| 2026-05-07 19:05 | 41.39106 | 2.57406 | 14226 ft | 350 kts | 59° |
| 2026-05-07 19:05 | 41.40351 | 2.60217 | 14847 ft | 356 kts | 59° |
| 2026-05-07 19:05 | 41.41617 | 2.63075 | 15482 ft | 360 kts | 59° |
| 2026-05-07 19:05 | 41.42900 | 2.65973 | 16137 ft | 364 kts | 59° |
| 2026-05-07 19:06 | 41.44191 | 2.68896 | 16749 ft | 369 kts | 59° |
| 2026-05-07 19:06 | 41.46823 | 2.74881 | 17949 ft | 379 kts | 60° |
| 2026-05-07 19:06 | 41.48167 | 2.77944 | 18497 ft | 384 kts | 60° |
| 2026-05-07 19:07 | 41.49528 | 2.81041 | 19036 ft | 388 kts | 60° |
| 2026-05-07 19:07 | 41.50898 | 2.84160 | 19577 ft | 392 kts | 60° |
| 2026-05-07 19:07 | 41.52266 | 2.87278 | 20103 ft | 396 kts | 60° |
| 2026-05-07 19:07 | 41.53667 | 2.90471 | 20677 ft | 400 kts | 59° |
| 2026-05-07 19:08 | 41.55082 | 2.93695 | 21196 ft | 404 kts | 60° |
| 2026-05-07 19:08 | 41.56515 | 2.96959 | 21706 ft | 409 kts | 60° |
| 2026-05-07 19:08 | 41.57957 | 3.00250 | 22212 ft | 413 kts | 60° |
| 2026-05-07 19:08 | 41.59415 | 3.03589 | 22713 ft | 418 kts | 60° |
| 2026-05-07 19:09 | 41.60885 | 3.06967 | 23243 ft | 421 kts | 61° |
| 2026-05-07 19:09 | 41.62360 | 3.10359 | 23774 ft | 423 kts | 62° |
| 2026-05-07 19:09 | 41.63847 | 3.13775 | 24223 ft | 426 kts | 62° |
| 2026-05-07 19:09 | 41.65343 | 3.17213 | 24666 ft | 429 kts | 62° |
| 2026-05-07 19:10 | 41.66840 | 3.20665 | 25079 ft | 432 kts | 62° |
| 2026-05-07 19:10 | 41.68356 | 3.24164 | 25483 ft | 435 kts | 62° |
| 2026-05-07 19:10 | 41.69872 | 3.27667 | 25898 ft | 438 kts | 62° |
| 2026-05-07 19:10 | 41.71403 | 3.31213 | 26311 ft | 440 kts | 62° |
| 2026-05-07 19:11 | 41.72939 | 3.34780 | 26696 ft | 443 kts | 63° |
| 2026-05-07 19:11 | 41.74289 | 3.38496 | 27028 ft | 445 kts | 69° |
| 2026-05-07 19:11 | 41.75550 | 3.42290 | 27391 ft | 448 kts | 69° |
| 2026-05-07 19:11 | 41.76821 | 3.46120 | 27756 ft | 451 kts | 69° |
| 2026-05-07 19:12 | 41.78099 | 3.49974 | 28125 ft | 454 kts | 69° |
| 2026-05-07 19:12 | 41.79387 | 3.53852 | 28482 ft | 456 kts | 69° |
| 2026-05-07 19:12 | 41.80680 | 3.57742 | 28833 ft | 459 kts | 69° |
| 2026-05-07 19:12 | 41.81982 | 3.61662 | 29182 ft | 461 kts | 70° |
| 2026-05-07 19:13 | 41.83292 | 3.65619 | 29517 ft | 464 kts | 70° |
| 2026-05-07 19:13 | 41.84602 | 3.69581 | 29863 ft | 466 kts | 70° |
| 2026-05-07 19:13 | 41.85914 | 3.73559 | 29977 ft | 467 kts | 70° |
| 2026-05-07 19:13 | 41.87226 | 3.77550 | 29980 ft | 467 kts | 70° |
| 2026-05-07 19:14 | 41.89842 | 3.85550 | 29985 ft | 469 kts | 70° |
| 2026-05-07 19:14 | 41.92460 | 3.93561 | 29983 ft | 469 kts | 69° |
| 2026-05-07 19:15 | 41.95079 | 4.01588 | 29983 ft | 469 kts | 69° |
| 2026-05-07 19:15 | 41.97694 | 4.09632 | 29983 ft | 469 kts | 69° |
| 2026-05-07 19:16 | 42.00305 | 4.17664 | 29983 ft | 469 kts | 69° |
| 2026-05-07 19:16 | 42.02894 | 4.25683 | 29983 ft | 470 kts | 69° |
| 2026-05-07 19:17 | 42.05489 | 4.33764 | 29985 ft | 470 kts | 69° |
| 2026-05-07 19:17 | 42.08241 | 4.41761 | 29981 ft | 473 kts | 61° |
| 2026-05-07 19:18 | 42.12036 | 4.49018 | 29986 ft | 474 kts | 55° |
| 2026-05-07 19:18 | 42.15912 | 4.56204 | 29983 ft | 473 kts | 55° |
| 2026-05-07 19:19 | 42.19777 | 4.63417 | 29986 ft | 476 kts | 55° |
| 2026-05-07 19:19 | 42.23655 | 4.70657 | 29986 ft | 476 kts | 55° |
| 2026-05-07 19:20 | 42.27535 | 4.77907 | 29986 ft | 476 kts | 55° |
| 2026-05-07 19:20 | 42.31399 | 4.85140 | 29990 ft | 476 kts | 55° |
| 2026-05-07 19:21 | 42.35264 | 4.92405 | 29985 ft | 476 kts | 55° |
| 2026-05-07 19:21 | 42.39138 | 4.99707 | 29989 ft | 479 kts | 55° |
| 2026-05-07 19:22 | 42.43025 | 5.07044 | 29989 ft | 480 kts | 55° |
| 2026-05-07 19:22 | 42.46909 | 5.14405 | 29989 ft | 480 kts | 55° |
| 2026-05-07 19:23 | 42.50791 | 5.21771 | 29993 ft | 480 kts | 55° |
| 2026-05-07 19:23 | 42.54668 | 5.29147 | 29987 ft | 481 kts | 55° |
| 2026-05-07 19:24 | 42.58546 | 5.36552 | 29989 ft | 483 kts | 55° |
| 2026-05-07 19:24 | 42.62443 | 5.44016 | 29989 ft | 485 kts | 55° |
| 2026-05-07 19:25 | 42.66351 | 5.51500 | 29991 ft | 485 kts | 55° |
| 2026-05-07 19:25 | 42.70250 | 5.58984 | 29991 ft | 485 kts | 55° |
| 2026-05-07 19:26 | 42.74141 | 5.66476 | 29991 ft | 485 kts | 55° |
| 2026-05-07 19:26 | 42.78022 | 5.73986 | 29989 ft | 487 kts | 55° |
| 2026-05-07 19:27 | 42.81914 | 5.81526 | 29989 ft | 489 kts | 55° |
| 2026-05-07 19:27 | 42.85834 | 5.89115 | 29989 ft | 490 kts | 55° |
| 2026-05-07 19:28 | 42.89745 | 5.96720 | 29981 ft | 489 kts | 55° |
| 2026-05-07 19:28 | 42.93633 | 6.04323 | 29979 ft | 489 kts | 55° |
| 2026-05-07 19:29 | 42.97524 | 6.11957 | 29980 ft | 490 kts | 56° |
| 2026-05-07 19:29 | 43.01429 | 6.19617 | 29974 ft | 492 kts | 55° |
| 2026-05-07 19:30 | 43.05341 | 6.27293 | 29978 ft | 492 kts | 56° |
| 2026-05-07 19:30 | 43.09251 | 6.34988 | 29980 ft | 492 kts | 55° |
| 2026-05-07 19:31 | 43.13147 | 6.42686 | 29981 ft | 492 kts | 55° |
| 2026-05-07 19:31 | 43.17033 | 6.50414 | 29991 ft | 493 kts | 55° |
| 2026-05-07 19:32 | 43.20923 | 6.58148 | 29993 ft | 493 kts | 55° |
| 2026-05-07 19:32 | 43.24842 | 6.65794 | 29997 ft | 493 kts | 53° |
| 2026-05-07 19:33 | 43.28901 | 6.73403 | 29995 ft | 493 kts | 53° |
| 2026-05-07 19:33 | 43.32956 | 6.80981 | 29999 ft | 493 kts | 53° |
| 2026-05-07 19:34 | 43.36987 | 6.88619 | 30009 ft | 492 kts | 53° |
| 2026-05-07 19:34 | 43.40983 | 6.96256 | 30002 ft | 492 kts | 53° |
| 2026-05-07 19:35 | 43.44973 | 7.03912 | 30001 ft | 493 kts | 53° |
| 2026-05-07 19:35 | 43.48984 | 7.11594 | 30002 ft | 494 kts | 53° |
| 2026-05-07 19:36 | 43.52992 | 7.19281 | 30002 ft | 494 kts | 53° |
| 2026-05-07 19:36 | 43.56992 | 7.26993 | 30002 ft | 494 kts | 53° |
| 2026-05-07 19:37 | 43.60976 | 7.34703 | 30005 ft | 493 kts | 53° |
| 2026-05-07 19:37 | 43.64957 | 7.42401 | 30003 ft | 493 kts | 53° |
| 2026-05-07 19:38 | 43.68918 | 7.50073 | 30010 ft | 493 kts | 53° |
| 2026-05-07 19:38 | 43.72907 | 7.57847 | 30011 ft | 493 kts | 53° |
| 2026-05-07 19:39 | 43.76850 | 7.65549 | 30013 ft | 494 kts | 53° |
| 2026-05-07 19:39 | 43.80156 | 7.72025 | 30012 ft | 495 kts | 53° |
| 2026-05-07 19:40 | 43.84354 | 7.81544 | 30009 ft | 495 kts | 60° |
| 2026-05-07 19:40 | 43.87689 | 7.89905 | 30007 ft | 496 kts | 60° |
| 2026-05-07 19:41 | 43.90458 | 7.96871 | 30006 ft | 495 kts | 60° |
| 2026-05-07 19:41 | 43.93780 | 8.05245 | 30002 ft | 496 kts | 60° |
| 2026-05-07 19:42 | 43.97105 | 8.13641 | 30002 ft | 496 kts | 59° |
| 2026-05-07 19:42 | 44.00420 | 8.22047 | 30002 ft | 497 kts | 59° |
| 2026-05-07 19:43 | 44.03729 | 8.30478 | 30005 ft | 497 kts | 59° |
| 2026-05-07 19:43 | 44.07032 | 8.38912 | 30009 ft | 497 kts | 59° |
| 2026-05-07 19:44 | 44.10335 | 8.47360 | 30022 ft | 497 kts | 59° |
| 2026-05-07 19:44 | 44.13634 | 8.55836 | 30016 ft | 498 kts | 59° |
| 2026-05-07 19:45 | 44.16928 | 8.64331 | 30016 ft | 499 kts | 59° |
| 2026-05-07 19:45 | 44.20217 | 8.72830 | 30003 ft | 499 kts | 59° |
| 2026-05-07 19:46 | 44.23504 | 8.81372 | 30017 ft | 500 kts | 59° |
| 2026-05-07 19:46 | 44.26758 | 8.89937 | 30019 ft | 500 kts | 60° |
| 2026-05-07 19:47 | 44.29965 | 8.98428 | 30006 ft | 495 kts | 60° |
| 2026-05-07 19:47 | 44.33179 | 9.06933 | 30009 ft | 495 kts | 60° |
| 2026-05-07 19:48 | 44.36397 | 9.15458 | 30014 ft | 498 kts | 60° |
| 2026-05-07 19:48 | 44.39624 | 9.24038 | 30012 ft | 499 kts | 59° |
| 2026-05-07 19:49 | 44.42845 | 9.32627 | 30014 ft | 499 kts | 60° |
| 2026-05-07 19:49 | 44.46041 | 9.41190 | 29991 ft | 496 kts | 60° |
| 2026-05-07 19:50 | 44.49251 | 9.49783 | 30012 ft | 499 kts | 59° |
| 2026-05-07 19:50 | 44.52461 | 9.58432 | 30010 ft | 500 kts | 60° |
| 2026-05-07 19:51 | 44.55642 | 9.67050 | 30010 ft | 501 kts | 60° |
| 2026-05-07 19:51 | 44.58841 | 9.75718 | 30015 ft | 499 kts | 60° |
| 2026-05-07 19:52 | 44.61999 | 9.84296 | 29995 ft | 493 kts | 60° |
| 2026-05-07 19:52 | 44.65142 | 9.92870 | 30004 ft | 495 kts | 60° |
| 2026-05-07 19:53 | 44.68285 | 10.01470 | 30000 ft | 495 kts | 60° |
| 2026-05-07 19:53 | 44.71430 | 10.10081 | 29990 ft | 495 kts | 60° |
| 2026-05-07 19:54 | 44.74566 | 10.18697 | 30000 ft | 493 kts | 61° |
| 2026-05-07 19:54 | 44.77645 | 10.27216 | 29975 ft | 486 kts | 61° |
| 2026-05-07 19:55 | 44.80715 | 10.35717 | 30028 ft | 488 kts | 61° |
| 2026-05-07 19:55 | 44.83789 | 10.44256 | 30029 ft | 489 kts | 61° |
| 2026-05-07 19:56 | 44.86854 | 10.52794 | 30032 ft | 489 kts | 61° |
| 2026-05-07 19:56 | 44.89915 | 10.61356 | 30038 ft | 488 kts | 61° |
| 2026-05-07 19:57 | 44.92924 | 10.69809 | 30027 ft | 485 kts | 62° |
| 2026-05-07 19:57 | 44.95935 | 10.78325 | 30026 ft | 486 kts | 61° |
| 2026-05-07 19:58 | 44.98944 | 10.86880 | 30024 ft | 486 kts | 62° |
| 2026-05-07 19:58 | 45.01949 | 10.95454 | 30009 ft | 486 kts | 62° |
| 2026-05-07 19:59 | 45.04949 | 11.04028 | 30022 ft | 486 kts | 62° |
| 2026-05-07 19:59 | 45.07935 | 11.12582 | 30004 ft | 484 kts | 62° |
| 2026-05-07 20:00 | 45.10913 | 11.21123 | 30007 ft | 484 kts | 62° |
| 2026-05-07 20:00 | 45.13880 | 11.29673 | 30033 ft | 484 kts | 62° |
| 2026-05-07 20:01 | 45.16841 | 11.38241 | 30029 ft | 484 kts | 62° |
| 2026-05-07 20:01 | 45.19787 | 11.46812 | 30044 ft | 483 kts | 62° |
| 2026-05-07 20:02 | 45.22702 | 11.55310 | 30029 ft | 482 kts | 62° |
| 2026-05-07 20:02 | 45.25637 | 11.63865 | 30029 ft | 482 kts | 62° |
| 2026-05-07 20:03 | 45.28571 | 11.72448 | 30026 ft | 484 kts | 62° |
| 2026-05-07 20:03 | 45.31500 | 11.81057 | 30025 ft | 484 kts | 62° |
| 2026-05-07 20:04 | 45.34424 | 11.89698 | 30026 ft | 484 kts | 62° |
| 2026-05-07 20:04 | 45.37343 | 11.98335 | 30035 ft | 485 kts | 62° |
| 2026-05-07 20:05 | 45.40239 | 12.06926 | 30013 ft | 484 kts | 62° |
| 2026-05-07 20:05 | 45.43147 | 12.15580 | 30020 ft | 486 kts | 62° |
| 2026-05-07 20:06 | 45.46047 | 12.24252 | 29899 ft | 479 kts | 62° |
| 2026-05-07 20:06 | 45.47459 | 12.28502 | 29610 ft | 468 kts | 62° |
| 2026-05-07 20:06 | 45.48833 | 12.32644 | 29329 ft | 457 kts | 62° |
| 2026-05-07 20:07 | 45.50172 | 12.36685 | 29062 ft | 447 kts | 62° |
| 2026-05-07 20:07 | 45.51489 | 12.40657 | 28788 ft | 438 kts | 62° |
| 2026-05-07 20:07 | 45.52782 | 12.44552 | 28512 ft | 432 kts | 62° |
| 2026-05-07 20:07 | 45.54066 | 12.48414 | 28243 ft | 428 kts | 62° |
| 2026-05-07 20:08 | 45.55339 | 12.52247 | 27970 ft | 425 kts | 62° |
| 2026-05-07 20:08 | 45.56598 | 12.56047 | 27696 ft | 423 kts | 62° |
| 2026-05-07 20:08 | 45.57847 | 12.59827 | 27434 ft | 421 kts | 62° |
| 2026-05-07 20:08 | 45.59089 | 12.63592 | 27167 ft | 418 kts | 62° |
| 2026-05-07 20:09 | 45.60320 | 12.67338 | 26892 ft | 416 kts | 62° |
| 2026-05-07 20:09 | 45.61542 | 12.71073 | 26642 ft | 413 kts | 62° |
| 2026-05-07 20:09 | 45.62745 | 12.74790 | 26386 ft | 411 kts | 64° |
| 2026-05-07 20:10 | 45.64897 | 12.82324 | 25885 ft | 407 kts | 67° |
| 2026-05-07 20:10 | 45.65873 | 12.86061 | 25643 ft | 403 kts | 68° |
| 2026-05-07 20:10 | 45.66834 | 12.89803 | 25396 ft | 400 kts | 68° |
| 2026-05-07 20:10 | 45.67348 | 12.91802 | 25265 ft | 398 kts | 68° |
| 2026-05-07 20:11 | 45.67813 | 12.93600 | 25147 ft | 397 kts | 68° |
| 2026-05-07 20:11 | 45.68779 | 12.97286 | 24908 ft | 394 kts | 68° |
| 2026-05-07 20:11 | 45.69752 | 13.00948 | 24671 ft | 392 kts | 67° |
| 2026-05-07 20:12 | 45.70724 | 13.04572 | 24444 ft | 389 kts | 67° |
| 2026-05-07 20:12 | 45.71696 | 13.08188 | 24209 ft | 388 kts | 67° |
| 2026-05-07 20:12 | 45.72659 | 13.11774 | 23977 ft | 385 kts | 67° |
| 2026-05-07 20:12 | 45.73615 | 13.15346 | 23744 ft | 383 kts | 67° |
| 2026-05-07 20:13 | 45.74548 | 13.18853 | 23511 ft | 380 kts | 68° |
| 2026-05-07 20:13 | 45.75484 | 13.22377 | 23231 ft | 378 kts | 68° |
| 2026-05-07 20:13 | 45.76415 | 13.25889 | 22964 ft | 376 kts | 68° |
| 2026-05-07 20:13 | 45.77336 | 13.29373 | 22689 ft | 374 kts | 68° |
| 2026-05-07 20:14 | 45.78255 | 13.32856 | 22420 ft | 372 kts | 68° |
| 2026-05-07 20:14 | 45.79163 | 13.36298 | 22159 ft | 367 kts | 68° |
| 2026-05-07 20:14 | 45.80062 | 13.39709 | 21762 ft | 364 kts | 68° |
| 2026-05-07 20:14 | 45.80951 | 13.43089 | 21345 ft | 361 kts | 68° |
| 2026-05-07 20:15 | 45.81832 | 13.46443 | 20941 ft | 358 kts | 68° |
| 2026-05-07 20:15 | 45.82706 | 13.49771 | 20535 ft | 356 kts | 68° |
| 2026-05-07 20:15 | 45.83573 | 13.53086 | 20137 ft | 354 kts | 68° |
| 2026-05-07 20:15 | 45.84432 | 13.56383 | 19738 ft | 352 kts | 68° |
| 2026-05-07 20:16 | 45.85277 | 13.59678 | 19340 ft | 351 kts | 69° |
| 2026-05-07 20:16 | 45.86028 | 13.63006 | 18943 ft | 350 kts | 71° |
| 2026-05-07 20:16 | 45.86707 | 13.66360 | 18542 ft | 349 kts | 72° |
| 2026-05-07 20:16 | 45.87352 | 13.69703 | 18120 ft | 348 kts | 73° |
| 2026-05-07 20:17 | 45.87991 | 13.73052 | 17725 ft | 345 kts | 73° |
| 2026-05-07 20:17 | 45.88629 | 13.76366 | 17338 ft | 343 kts | 73° |
| 2026-05-07 20:17 | 45.89262 | 13.79607 | 16965 ft | 340 kts | 73° |
| 2026-05-07 20:17 | 45.89912 | 13.82906 | 16590 ft | 338 kts | 73° |
| 2026-05-07 20:18 | 45.90552 | 13.86135 | 16219 ft | 336 kts | 73° |
| 2026-05-07 20:18 | 45.91190 | 13.89348 | 15850 ft | 333 kts | 73° |
| 2026-05-07 20:18 | 45.91827 | 13.92545 | 15482 ft | 332 kts | 73° |
| 2026-05-07 20:18 | 45.92456 | 13.95689 | 15123 ft | 330 kts | 73° |
| 2026-05-07 20:19 | 45.93086 | 13.98859 | 14761 ft | 329 kts | 73° |
| 2026-05-07 20:19 | 45.93713 | 14.02016 | 14414 ft | 327 kts | 73° |
| 2026-05-07 20:19 | 45.94326 | 14.05120 | 14311 ft | 316 kts | 73° |
| 2026-05-07 20:19 | 45.94919 | 14.08134 | 14079 ft | 312 kts | 73° |
| 2026-05-07 20:20 | 45.95510 | 14.11127 | 13705 ft | 312 kts | 73° |
| 2026-05-07 20:20 | 45.96096 | 14.14102 | 13319 ft | 312 kts | 73° |
| 2026-05-07 20:20 | 45.96684 | 14.17101 | 12946 ft | 311 kts | 73° |
| 2026-05-07 20:20 | 45.97269 | 14.20090 | 12578 ft | 310 kts | 73° |
| 2026-05-07 20:21 | 45.97853 | 14.23072 | 12206 ft | 309 kts | 73° |
| 2026-05-07 20:21 | 45.98435 | 14.26037 | 11827 ft | 308 kts | 73° |
| 2026-05-07 20:21 | 45.99016 | 14.29002 | 11449 ft | 307 kts | 73° |
| 2026-05-07 20:21 | 45.99590 | 14.31962 | 11063 ft | 307 kts | 73° |
| 2026-05-07 20:22 | 46.00162 | 14.34911 | 10677 ft | 306 kts | 73° |
| 2026-05-07 20:22 | 46.00733 | 14.37855 | 10282 ft | 306 kts | 73° |
| 2026-05-07 20:22 | 46.01304 | 14.40795 | 9909 ft | 304 kts | 74° |
| 2026-05-07 20:22 | 46.01870 | 14.43711 | 9484 ft | 303 kts | 74° |
| 2026-05-07 20:23 | 46.02429 | 14.46609 | 9082 ft | 301 kts | 74° |
| 2026-05-07 20:23 | 46.02986 | 14.49503 | 8665 ft | 299 kts | 74° |
| 2026-05-07 20:23 | 46.03533 | 14.52346 | 8264 ft | 298 kts | 74° |
| 2026-05-07 20:23 | 46.03959 | 14.55258 | 7874 ft | 296 kts | 85° |
| 2026-05-07 20:24 | 46.03976 | 14.58138 | 7625 ft | 280 kts | 90° |
| 2026-05-07 20:24 | 46.03958 | 14.60902 | 7124 ft | 273 kts | 90° |
| 2026-05-07 20:24 | 46.04073 | 14.63594 | 6636 ft | 266 kts | 75° |
| 2026-05-07 20:24 | 46.04774 | 14.65990 | 6131 ft | 257 kts | 54° |
| 2026-05-07 20:25 | 46.05951 | 14.67852 | 5596 ft | 249 kts | 32° |
| 2026-05-07 20:25 | 46.07494 | 14.68854 | 5099 ft | 240 kts | 6° |
| 2026-05-07 20:25 | 46.09122 | 14.68866 | 4898 ft | 232 kts | 344° |
| 2026-05-07 20:25 | 46.10593 | 14.68023 | 4668 ft | 227 kts | 323° |
| 2026-05-07 20:26 | 46.11719 | 14.66493 | 4401 ft | 221 kts | 304° |
| 2026-05-07 20:26 | 46.12627 | 14.64727 | 4126 ft | 218 kts | 303° |
| 2026-05-07 20:26 | 46.13516 | 14.63000 | 3837 ft | 214 kts | 303° |
| 2026-05-07 20:26 | 46.14382 | 14.61319 | 3564 ft | 204 kts | 303° |
| 2026-05-07 20:27 | 46.15196 | 14.59740 | 3327 ft | 189 kts | 303° |
| 2026-05-07 20:27 | 46.15965 | 14.58247 | 3059 ft | 177 kts | 303° |
| 2026-05-07 20:27 | 46.16675 | 14.56865 | 2823 ft | 172 kts | 303° |
| 2026-05-07 20:27 | 46.17377 | 14.55497 | 2604 ft | 169 kts | 303° |
| 2026-05-07 20:28 | 46.18069 | 14.54149 | 2373 ft | 162 kts | 303° |
| 2026-05-07 20:28 | 46.18705 | 14.52913 | 2185 ft | 145 kts | 304° |
| 2026-05-07 20:28 | 46.19288 | 14.51777 | 1981 ft | 139 kts | 305° |
| 2026-05-07 20:28 | 46.19676 | 14.51020 | 1850 ft | 137 kts | 305° |
| 2026-05-07 20:29 | 46.20238 | 14.49913 | 1659 ft | 136 kts | 305° |
| 2026-05-07 20:29 | 46.20802 | 14.48816 | 1462 ft | 136 kts | 307° |
| 2026-05-07 20:29 | 46.21370 | 14.47731 | 1304 ft | 135 kts | 306° |
| 2026-05-07 20:29 | 46.21902 | 14.46655 | 1227 ft | 122 kts | 304° |
| 2026-05-07 20:30 | 46.22338 | 14.45813 | 1247 ft | 82 kts | 305° |
| 2026-05-07 20:30 | 46.22554 | 14.45463 | 1249 ft | 26 kts | 343° |
| 2026-05-07 20:30 | 46.22655 | 14.45373 | 1257 ft | 12 kts | 334° |
| 2026-05-07 20:30 | 46.22729 | 14.45335 | 1261 ft | 12 kts | 343° |
| 2026-05-07 20:31 | 46.22804 | 14.45318 | 1258 ft | 11 kts | 352° |
| 2026-05-07 20:31 | 46.22884 | 14.45357 | 1264 ft | 14 kts | 37° |
| 2026-05-07 20:31 | 46.22954 | 14.45389 | 1263 ft | 12 kts | 328° |
| 2026-05-07 20:31 | 46.22978 | 14.45358 | 1264 ft | 0 kts | 309° |
| 2026-05-07 20:32 | 46.22989 | 14.45344 | 1258 ft | 8 kts | 327° |
| 2026-05-07 20:32 | 46.23036 | 14.45357 | 1261 ft | 1 kts | 33° |
| 2026-05-07 20:32 | 46.23043 | 14.45364 | 1262 ft | 3 kts | 33° |
| 2026-05-07 20:33 | 46.23049 | 14.45370 | 1260 ft | 0 kts | 36° |
| 2026-05-07 20:33 | 46.23052 | 14.45373 | 1260 ft | 0 kts | 36° |